Time;durP1;ratioP1;P1;durP2;ratioP2;P2;SDS_P1;SDS_P2;PMS_P1;PMS_P2;Temp;Humidity;BMP_temperature;BMP_pressure;BME280_temperature;BME280_humidity;BME280_pressure;Samples;Min_cycle;Max_cycle;Signal;HPM_P1;HPM_P2
2022/09/18 00:01:41;;;;;;;14.60;4.10;;;9.00;99.90;;;;;;4406947;28;657293;-85
2022/09/18 00:04:29;;;;;;;9.50;3.33;;;9.00;99.90;;;;;;4409079;28;658873;-84
2022/09/18 00:07:16;;;;;;;8.90;3.40;;;8.90;99.90;;;;;;4400262;28;658618;-85
2022/09/18 00:10:04;;;;;;;9.27;3.80;;;8.90;99.90;;;;;;4408764;28;658077;-84
2022/09/18 00:12:51;;;;;;;10.57;3.40;;;9.00;99.90;;;;;;4392894;28;657449;-85
2022/09/18 00:15:40;;;;;;;11.13;4.00;;;8.90;99.90;;;;;;4413078;28;658945;-85
2022/09/18 00:18:27;;;;;;;9.17;3.57;;;8.90;99.90;;;;;;4399248;28;659034;-85
2022/09/18 00:21:15;;;;;;;13.17;4.10;;;8.90;99.90;;;;;;4416446;28;657165;-85
2022/09/18 00:24:02;;;;;;;14.07;4.47;;;8.90;99.90;;;;;;4389021;28;658671;-84
2022/09/18 00:26:49;;;;;;;14.23;4.50;;;8.80;99.90;;;;;;4413439;28;658512;-84
2022/09/18 00:29:36;;;;;;;12.23;4.83;;;8.80;99.90;;;;;;4399971;28;658859;-83
2022/09/18 00:32:25;;;;;;;11.87;5.47;;;8.80;99.90;;;;;;4415197;28;658772;-85
2022/09/18 00:35:12;;;;;;;12.27;5.30;;;8.70;99.90;;;;;;4390877;28;658653;-85
2022/09/18 00:37:59;;;;;;;13.67;5.33;;;8.70;99.90;;;;;;4410624;28;659119;-84
2022/09/18 00:40:46;;;;;;;15.88;6.30;;;8.70;99.90;;;;;;4396411;28;658980;-84
2022/09/18 00:43:34;;;;;;;18.10;6.40;;;8.80;99.90;;;;;;4412633;28;658719;-84
2022/09/18 00:46:23;;;;;;;13.50;6.10;;;8.70;99.90;;;;;;4392153;28;658738;-84
2022/09/18 00:49:15;;;;;;;10.03;4.87;;;8.70;99.90;;;;;;4388237;28;658752;-85
2022/09/18 00:52:02;;;;;;;15.63;6.03;;;8.80;99.90;;;;;;4390636;28;659006;-84
2022/09/18 00:54:50;;;;;;;21.33;6.57;;;8.60;99.90;;;;;;4413996;28;658992;-85
2022/09/18 00:57:40;;;;;;;17.10;6.80;;;8.60;99.90;;;;;;4390115;28;658881;-85
2022/09/18 01:00:28;;;;;;;14.17;6.93;;;8.60;99.90;;;;;;4394309;28;659209;-84
2022/09/18 01:03:15;;;;;;;19.53;7.27;;;8.60;99.90;;;;;;4394141;28;658447;-85
2022/09/18 01:06:10;;;;;;;16.53;7.27;;;8.60;99.90;;;;;;4418202;28;658770;-85
2022/09/18 01:09:02;;;;;;;20.93;6.90;;;8.50;99.90;;;;;;4384900;28;658460;-85
2022/09/18 01:11:51;;;;;;;21.10;7.10;;;8.50;99.90;;;;;;4382812;28;659335;-85
2022/09/18 01:14:41;;;;;;;18.00;7.33;;;8.60;99.90;;;;;;4395631;28;658746;-85
2022/09/18 01:17:31;;;;;;;18.33;6.80;;;8.50;99.90;;;;;;4404454;28;659388;-84
2022/09/18 01:20:35;;;;;;;18.47;6.27;;;8.50;99.90;;;;;;4383671;28;658588;-85
2022/09/18 01:23:37;;;;;;;17.05;6.00;;;8.60;99.90;;;;;;4393250;28;658942;-84
2022/09/18 01:26:31;;;;;;;19.97;6.57;;;8.60;99.90;;;;;;4391804;28;658919;-84
2022/09/18 01:29:24;;;;;;;13.17;5.27;;;8.60;99.90;;;;;;4395336;28;658340;-84
2022/09/18 01:32:16;;;;;;;9.80;3.73;;;8.50;99.90;;;;;;4383004;28;658871;-86
2022/09/18 01:35:06;;;;;;;18.70;5.80;;;8.50;99.90;;;;;;4406483;28;657805;-85
2022/09/18 01:37:54;;;;;;;11.17;4.63;;;8.40;99.90;;;;;;4388496;28;658966;-85
2022/09/18 01:40:44;;;;;;;17.27;5.83;;;8.40;99.90;;;;;;4383389;28;658970;-84
2022/09/18 01:43:31;;;;;;;14.87;4.63;;;8.40;99.90;;;;;;4388766;28;658950;-84
2022/09/18 01:46:20;;;;;;;12.17;4.60;;;8.40;99.90;;;;;;4412810;28;658634;-85
2022/09/18 01:49:09;;;;;;;12.27;4.87;;;8.40;99.90;;;;;;4392072;28;658849;-85
2022/09/18 01:51:58;;;;;;;12.40;4.57;;;8.30;99.90;;;;;;4391091;28;658932;-84
2022/09/18 01:54:45;;;;;;;13.30;4.97;;;8.40;99.90;;;;;;4398554;28;658912;-85
2022/09/18 01:57:38;;;;;;;9.33;3.93;;;8.40;99.90;;;;;;4411747;28;659344;-85
2022/09/18 02:00:26;;;;;;;9.37;4.00;;;8.40;99.90;;;;;;4380817;28;658559;-85
2022/09/18 02:03:16;;;;;;;14.73;3.87;;;8.20;99.90;;;;;;4410643;28;658397;-84
2022/09/18 02:06:05;;;;;;;10.47;4.43;;;8.20;99.90;;;;;;4386526;28;658986;-85
2022/09/18 02:08:53;;;;;;;9.73;3.73;;;8.20;99.90;;;;;;4391517;28;659046;-84
2022/09/18 02:11:42;;;;;;;15.30;5.23;;;8.30;99.90;;;;;;4385273;28;657894;-84
2022/09/18 02:14:31;;;;;;;9.13;4.87;;;8.20;99.90;;;;;;4420945;28;658396;-85
2022/09/18 02:17:20;;;;;;;13.70;4.00;;;8.20;99.90;;;;;;4388569;28;657813;-84
2022/09/18 02:20:12;;;;;;;13.87;4.17;;;8.20;99.90;;;;;;4382248;28;658976;-84
2022/09/18 02:23:02;;;;;;;10.77;4.37;;;8.20;99.90;;;;;;4393503;28;658529;-84
2022/09/18 02:25:50;;;;;;;13.60;4.40;;;8.20;99.90;;;;;;4393145;28;658775;-84
2022/09/18 02:28:37;;;;;;;8.83;3.97;;;8.20;99.90;;;;;;4391120;28;658860;-85
2022/09/18 02:31:25;;;;;;;9.47;4.37;;;8.20;99.90;;;;;;4408493;28;657381;-84
2022/09/18 02:34:12;;;;;;;12.77;4.45;;;8.10;99.90;;;;;;4423438;28;658045;-85
2022/09/18 02:37:07;;;;;;;17.13;4.97;;;8.10;99.90;;;;;;4412261;28;659230;-85
2022/09/18 02:40:02;;;;;;;17.73;5.20;;;8.10;99.90;;;;;;4388464;28;658482;-85
2022/09/18 02:42:54;;;;;;;9.53;4.50;;;8.10;99.90;;;;;;4399254;28;658527;-85
2022/09/18 02:45:43;;;;;;;12.27;4.57;;;8.10;99.90;;;;;;4366440;28;657462;-85
2022/09/18 02:48:37;;;;;;;16.70;4.77;;;8.00;99.90;;;;;;4397125;28;658923;-85
2022/09/18 02:51:28;;;;;;;13.23;4.80;;;8.10;99.90;;;;;;4393566;28;658903;-85
2022/09/18 02:54:20;;;;;;;14.77;4.60;;;7.90;99.90;;;;;;4361773;28;659104;-85
2022/09/18 02:57:09;;;;;;;14.80;4.60;;;7.90;99.90;;;;;;4391917;28;658895;-84
2022/09/18 02:59:57;;;;;;;13.60;4.77;;;7.90;99.90;;;;;;4391269;28;658842;-84
2022/09/18 03:02:44;;;;;;;14.43;4.03;;;7.90;99.90;;;;;;4415597;28;658666;-85
2022/09/18 03:05:31;;;;;;;14.43;4.67;;;7.90;99.90;;;;;;4389955;28;658961;-85
2022/09/18 03:08:18;;;;;;;13.00;4.10;;;8.00;99.90;;;;;;4407102;28;658668;-85
2022/09/18 03:11:07;;;;;;;16.43;4.77;;;7.90;99.90;;;;;;4391549;28;658801;-84
2022/09/18 03:13:55;;;;;;;19.07;4.40;;;7.80;99.90;;;;;;4417907;28;659071;-85
2022/09/18 03:16:42;;;;;;;12.27;3.67;;;7.80;99.90;;;;;;4431270;28;658598;-85
2022/09/18 03:19:29;;;;;;;11.27;3.80;;;7.70;99.90;;;;;;4409525;28;659020;-85
2022/09/18 03:22:16;;;;;;;15.53;4.10;;;7.70;99.90;;;;;;4401027;28;658417;-85
2022/09/18 03:25:04;;;;;;;16.37;4.50;;;7.70;99.90;;;;;;4426460;28;659319;-85
2022/09/18 03:27:55;;;;;;;12.02;4.20;;;7.70;99.90;;;;;;4406618;28;658736;-85
2022/09/18 03:30:43;;;;;;;6.33;3.17;;;7.60;99.90;;;;;;4391001;28;659206;-85
2022/09/18 03:33:30;;;;;;;9.47;3.87;;;7.60;99.90;;;;;;4392060;28;657880;-85
2022/09/18 03:36:17;;;;;;;9.63;4.00;;;7.60;99.90;;;;;;4410115;28;658048;-85
2022/09/18 03:39:05;;;;;;;11.77;4.00;;;7.50;99.90;;;;;;4398697;28;657827;-85
2022/09/18 03:41:52;;;;;;;14.53;4.50;;;7.40;99.90;;;;;;4417065;28;658480;-85
2022/09/18 03:44:41;;;;;;;21.20;4.50;;;7.40;99.90;;;;;;4431026;28;658084;-85
2022/09/18 03:47:28;;;;;;;12.00;4.75;;;7.30;99.90;;;;;;4381568;28;659713;-84
2022/09/18 03:50:15;;;;;;;15.50;5.10;;;7.30;99.90;;;;;;4406019;28;658644;-85
2022/09/18 03:53:03;;;;;;;17.77;5.77;;;7.30;99.90;;;;;;4414319;28;659140;-86
2022/09/18 03:55:50;;;;;;;13.17;4.77;;;7.30;99.90;;;;;;4387661;28;658963;-85
2022/09/18 03:58:37;;;;;;;14.87;6.20;;;7.20;99.90;;;;;;4419741;28;659203;-85
2022/09/18 04:01:26;;;;;;;23.00;6.60;;;7.10;99.90;;;;;;4405496;28;658807;-86
2022/09/18 04:04:14;;;;;;;18.13;7.47;;;7.10;99.90;;;;;;4399088;28;658921;-86
2022/09/18 04:07:01;;;;;;;16.57;7.40;;;7.00;99.90;;;;;;4403852;28;659257;-86
2022/09/18 04:09:48;;;;;;;29.30;8.40;;;6.90;99.90;;;;;;4409815;28;658926;-85
2022/09/18 04:12:35;;;;;;;22.10;8.77;;;7.00;99.90;;;;;;4393146;28;658421;-86
2022/09/18 04:15:22;;;;;;;33.03;10.15;;;6.90;99.90;;;;;;4413858;28;659130;-85
2022/09/18 04:18:11;;;;;;;26.77;10.30;;;6.80;99.90;;;;;;4401549;28;659736;-85
2022/09/18 04:20:58;;;;;;;26.83;9.90;;;6.90;99.90;;;;;;4386620;28;660114;-85
2022/09/18 04:23:45;;;;;;;24.05;9.07;;;6.90;99.90;;;;;;4403237;28;659076;-86
2022/09/18 04:26:33;;;;;;;31.43;11.03;;;6.90;99.90;;;;;;4417846;28;659409;-86
2022/09/18 04:29:21;;;;;;;22.70;8.90;;;6.90;99.90;;;;;;4391606;28;660290;-85
2022/09/18 04:32:08;;;;;;;25.07;9.37;;;6.90;99.90;;;;;;4405532;28;659160;-85
2022/09/18 04:34:57;;;;;;;19.30;7.97;;;7.00;99.90;;;;;;4392075;28;659485;-84
2022/09/18 04:37:44;;;;;;;14.20;7.47;;;7.00;99.90;;;;;;4410248;28;658270;-85
2022/09/18 04:40:31;;;;;;;28.43;8.97;;;7.00;99.90;;;;;;4390205;28;658898;-85
2022/09/18 04:43:19;;;;;;;20.67;8.50;;;6.90;99.90;;;;;;4415260;28;658925;-85
2022/09/18 04:46:07;;;;;;;17.73;7.83;;;6.90;99.90;;;;;;4388813;28;658696;-85
2022/09/18 04:48:54;;;;;;;19.10;7.43;;;6.90;99.90;;;;;;4408306;28;658621;-85
2022/09/18 04:51:43;;;;;;;17.67;7.77;;;7.00;99.90;;;;;;4388080;28;658849;-85
2022/09/18 04:54:30;;;;;;;16.63;7.40;;;7.00;99.90;;;;;;4402603;28;658966;-87
2022/09/18 04:57:17;;;;;;;23.07;7.37;;;7.00;99.90;;;;;;4416189;28;658678;-85
2022/09/18 05:00:06;;;;;;;15.13;7.37;;;7.10;99.90;;;;;;4412612;28;659066;-85
2022/09/18 05:02:53;;;;;;;20.73;7.35;;;7.00;99.90;;;;;;4393728;28;658774;-85
2022/09/18 05:05:41;;;;;;;22.63;7.50;;;7.00;99.90;;;;;;4400049;28;659216;-86
2022/09/18 05:08:31;;;;;;;14.73;6.93;;;7.00;99.90;;;;;;4415578;28;659232;-86
2022/09/18 05:11:18;;;;;;;17.97;7.43;;;7.00;99.90;;;;;;4392702;28;659126;-86
2022/09/18 05:14:05;;;;;;;25.53;9.13;;;7.10;99.90;;;;;;4392811;28;658489;-85
2022/09/18 05:16:53;;;;;;;47.10;23.43;;;7.10;99.90;;;;;;4411739;28;659720;-86
2022/09/18 05:19:40;;;;;;;52.00;26.87;;;7.10;99.90;;;;;;4395292;28;659927;-85
2022/09/18 05:22:27;;;;;;;53.23;29.13;;;7.20;99.90;;;;;;4421198;28;659885;-85
2022/09/18 05:25:16;;;;;;;62.20;31.93;;;7.30;99.90;;;;;;4408401;28;659581;-85
2022/09/18 05:28:03;;;;;;;39.17;24.83;;;7.40;99.90;;;;;;4387834;28;660131;-85
2022/09/18 05:30:50;;;;;;;46.85;25.23;;;7.50;99.90;;;;;;4402026;28;660186;-86
2022/09/18 05:33:40;;;;;;;46.90;24.13;;;7.40;99.90;;;;;;4403532;28;660679;-85
2022/09/18 05:36:27;;;;;;;38.77;19.77;;;7.50;99.90;;;;;;4386557;28;660532;-85
2022/09/18 05:39:14;;;;;;;37.13;18.27;;;7.50;99.90;;;;;;4412198;28;659671;-85
2022/09/18 05:42:02;;;;;;;29.87;17.90;;;7.60;99.90;;;;;;4390702;28;660025;-86
2022/09/18 05:44:49;;;;;;;23.87;13.13;;;7.60;99.90;;;;;;4423670;28;659462;-86
2022/09/18 05:47:36;;;;;;;23.50;13.73;;;7.60;99.90;;;;;;4391931;28;660063;-86
2022/09/18 05:50:24;;;;;;;36.30;14.73;;;7.50;99.90;;;;;;4410550;28;660291;-85
2022/09/18 05:53:12;;;;;;;29.83;15.30;;;7.50;99.90;;;;;;4391319;28;659673;-87
2022/09/18 05:55:59;;;;;;;23.27;12.90;;;7.50;99.90;;;;;;4397329;28;660322;-87
2022/09/18 05:58:48;;;;;;;31.47;14.93;;;7.50;99.90;;;;;;4388521;28;659510;-86
2022/09/18 06:01:35;;;;;;;25.87;11.37;;;7.40;99.90;;;;;;4407982;28;661893;-85
2022/09/18 06:04:22;;;;;;;23.63;12.87;;;7.60;99.90;;;;;;4414579;28;660189;-85
2022/09/18 06:07:11;;;;;;;29.07;13.73;;;7.60;99.90;;;;;;4425166;28;659364;-86
2022/09/18 06:09:58;;;;;;;21.17;12.23;;;7.60;99.90;;;;;;4374629;28;659667;-85
2022/09/18 06:12:46;;;;;;;20.17;10.90;;;7.70;99.90;;;;;;4375787;28;660206;-87
2022/09/18 06:15:35;;;;;;;22.47;10.70;;;7.80;99.90;;;;;;4389634;28;659795;-86
2022/09/18 06:18:22;;;;;;;29.75;12.50;;;7.80;99.90;;;;;;4366576;28;660746;-86
2022/09/18 06:21:10;;;;;;;17.27;10.63;;;7.80;99.90;;;;;;4393506;28;659540;-85
2022/09/18 06:23:57;;;;;;;26.80;11.30;;;7.90;99.90;;;;;;4375281;28;659854;-85
2022/09/18 06:26:44;;;;;;;18.83;10.90;;;8.00;99.90;;;;;;4393436;28;660303;-86
2022/09/18 06:29:31;;;;;;;18.13;10.37;;;7.90;99.90;;;;;;4376453;28;659757;-85
2022/09/18 06:32:20;;;;;;;19.20;11.37;;;7.90;99.90;;;;;;4389226;28;660622;-85
2022/09/18 06:35:08;;;;;;;25.38;13.88;;;8.00;99.90;;;;;;4375154;28;659342;-85
2022/09/18 06:37:56;;;;;;;23.00;12.00;;;8.10;99.90;;;;;;4374397;28;659682;-86
2022/09/18 06:40:48;;;;;;;12.13;6.83;;;7.80;99.90;;;;;;4397533;28;659665;-86
2022/09/18 06:43:35;;;;;;;17.47;10.10;;;7.90;99.90;;;;;;4363997;28;658659;-86
2022/09/18 06:46:23;;;;;;;15.67;9.17;;;8.00;99.90;;;;;;4388438;28;660700;-84
2022/09/18 06:49:12;;;;;;;12.37;7.03;;;8.20;99.90;;;;;;4381808;28;658924;-86
2022/09/18 06:51:59;;;;;;;21.13;9.23;;;8.20;99.90;;;;;;4401772;28;658070;-85
2022/09/18 06:54:46;;;;;;;16.80;8.13;;;8.40;99.90;;;;;;4377941;28;658705;-85
2022/09/18 06:57:33;;;;;;;15.07;7.97;;;8.70;99.90;;;;;;4395621;28;658940;-85
2022/09/18 07:00:20;;;;;;;12.50;7.73;;;8.70;99.90;;;;;;4373257;28;658914;-85
2022/09/18 07:03:08;;;;;;;11.40;7.60;;;8.90;99.90;;;;;;4387088;28;659227;-85
2022/09/18 07:05:57;;;;;;;15.67;6.20;;;8.90;99.90;;;;;;4371948;28;658844;-88
2022/09/18 07:08:44;;;;;;;8.53;5.23;;;8.80;99.90;;;;;;4408625;28;659530;-87
2022/09/18 07:11:31;;;;;;;11.33;5.57;;;8.70;99.90;;;;;;4364733;28;657556;-87
2022/09/18 07:14:18;;;;;;;9.77;6.23;;;8.70;99.90;;;;;;4394522;28;659517;-86
2022/09/18 07:17:08;;;;;;;9.20;5.10;;;8.50;99.90;;;;;;4374453;28;657490;-85
2022/09/18 07:19:55;;;;;;;8.63;5.53;;;8.70;99.90;;;;;;4370479;28;657604;-85
2022/09/18 07:22:44;;;;;;;12.33;6.33;;;8.70;99.90;;;;;;4400493;28;658384;-84
2022/09/18 07:25:32;;;;;;;12.73;6.60;;;8.50;99.90;;;;;;4392667;28;658593;-85
2022/09/18 07:28:19;;;;;;;6.73;4.83;;;8.50;99.90;;;;;;4398555;28;658318;-85
2022/09/18 07:31:07;;;;;;;15.17;6.83;;;8.60;99.90;;;;;;4376618;28;657146;-86
2022/09/18 07:33:54;;;;;;;5.47;3.37;;;8.20;99.90;;;;;;4392537;28;658789;-85
2022/09/18 07:36:41;;;;;;;16.80;8.70;;;8.20;99.90;;;;;;4380001;28;657649;-85
2022/09/18 07:39:30;;;;;;;28.87;12.60;;;8.30;99.90;;;;;;4388750;28;659371;-85
2022/09/18 07:42:17;;;;;;;20.83;12.85;;;8.30;99.90;;;;;;4364317;28;660047;-86
2022/09/18 07:45:05;;;;;;;17.23;10.97;;;8.50;99.90;;;;;;4392418;28;659887;-84
2022/09/18 07:47:52;;;;;;;15.43;10.67;;;8.50;99.90;;;;;;4381438;28;660350;-85
2022/09/18 07:50:40;;;;;;;15.57;11.07;;;8.70;99.90;;;;;;4392304;28;660391;-86
2022/09/18 07:53:28;;;;;;;15.63;9.20;;;8.80;99.90;;;;;;4369772;28;661201;-84
2022/09/18 07:56:16;;;;;;;15.07;9.67;;;8.80;99.90;;;;;;4384643;28;659046;-84
2022/09/18 07:59:04;;;;;;;10.93;7.80;;;9.00;99.90;;;;;;4387324;28;659361;-87
2022/09/18 08:01:51;;;;;;;11.10;8.33;;;8.90;99.90;;;;;;4372959;28;658613;-86
2022/09/18 08:04:38;;;;;;;9.93;6.93;;;9.10;99.90;;;;;;4395380;28;659556;-86
2022/09/18 08:07:26;;;;;;;10.97;7.77;;;8.70;99.90;;;;;;4376405;28;657828;-88
2022/09/18 08:10:13;;;;;;;11.20;5.97;;;8.90;99.90;;;;;;4402206;28;659433;-85
2022/09/18 08:13:02;;;;;;;6.43;3.43;;;9.10;99.90;;;;;;4384234;28;658933;-86
2022/09/18 08:15:49;;;;;;;7.70;4.00;;;9.10;99.90;;;;;;4400990;28;657359;-87
2022/09/18 08:18:38;;;;;;;13.33;4.97;;;9.00;99.90;;;;;;4382281;28;657695;-84
2022/09/18 08:21:25;;;;;;;5.97;3.47;;;9.30;99.90;;;;;;4376820;28;658660;-86
2022/09/18 08:24:12;;;;;;;2.58;1.63;;;9.90;99.90;;;;;;4402794;28;657752;-85
2022/09/18 08:27:02;;;;;;;5.03;3.17;;;10.20;99.90;;;;;;4392044;28;657542;-85
2022/09/18 08:29:50;;;;;;;4.57;3.27;;;10.00;99.90;;;;;;4398786;28;659116;-85
2022/09/18 08:32:38;;;;;;;5.57;2.33;;;9.90;99.90;;;;;;4387027;28;658684;-87
2022/09/18 08:35:26;;;;;;;5.97;1.87;;;9.90;99.90;;;;;;4384308;28;657394;-84
2022/09/18 08:38:13;;;;;;;7.47;3.40;;;9.90;99.90;;;;;;4402342;28;658641;-85
2022/09/18 08:41:19;;;;;;;5.80;3.13;;;9.70;99.90;;;;;;4376596;28;657712;-85
2022/09/18 08:44:09;;;;;;;6.30;3.10;;;9.60;99.90;;;;;;4377951;28;657624;-86
2022/09/18 08:47:01;;;;;;;6.23;2.40;;;9.50;99.90;;;;;;4382645;28;657530;-87
2022/09/18 08:49:49;;;;;;;5.57;2.70;;;9.10;99.90;;;;;;4375418;28;658054;-84
2022/09/18 08:52:38;;;;;;;5.90;2.67;;;9.10;99.90;;;;;;4379054;28;657610;-85
2022/09/18 08:55:28;;;;;;;4.93;2.33;;;9.10;99.90;;;;;;4375877;28;657978;-85
2022/09/18 08:58:17;;;;;;;3.27;2.30;;;8.90;99.90;;;;;;4373621;28;657520;-84
2022/09/18 09:01:07;;;;;;;4.10;3.10;;;8.70;99.90;;;;;;4388404;28;657199;-85
2022/09/18 09:03:59;;;;;;;4.17;2.90;;;8.70;99.90;;;;;;4397174;28;658025;-85
2022/09/18 09:06:57;;;;;;;4.27;2.57;;;8.70;99.90;;;;;;4375181;28;657839;-84
2022/09/18 09:09:52;;;;;;;6.00;3.30;;;8.80;99.90;;;;;;4377775;28;657300;-85
2022/09/18 09:12:42;;;;;;;5.50;2.67;;;9.50;99.90;;;;;;4388180;28;658254;-86
2022/09/18 09:15:34;;;;;;;6.80;3.90;;;10.40;99.90;;;;;;4413333;28;657567;-85
2022/09/18 09:18:23;;;;;;;6.32;3.72;;;10.50;99.90;;;;;;4382367;28;658896;-84
2022/09/18 09:21:19;;;;;;;4.27;2.50;;;10.70;99.90;;;;;;4415520;28;659296;-85
2022/09/18 09:24:16;;;;;;;3.40;2.20;;;10.00;99.90;;;;;;4393288;28;658855;-84
2022/09/18 09:27:09;;;;;;;3.50;2.40;;;10.40;99.90;;;;;;4379689;28;659391;-86
2022/09/18 09:29:59;;;;;;;4.50;2.60;;;10.30;99.90;;;;;;4390172;28;659500;-85
2022/09/18 09:32:49;;;;;;;3.77;2.73;;;11.00;99.90;;;;;;4392524;28;658655;-85
2022/09/18 09:35:37;;;;;;;4.73;3.20;;;11.00;99.90;;;;;;4392810;28;658877;-85
2022/09/18 09:38:39;;;;;;;4.23;2.33;;;10.70;99.90;;;;;;4414748;28;658707;-87
2022/09/18 09:41:30;;;;;;;5.80;2.57;;;10.70;99.90;;;;;;4368219;28;658944;-85
2022/09/18 09:44:37;;;;;;;3.83;2.37;;;10.80;99.90;;;;;;4393244;28;659261;-85
2022/09/18 09:47:29;;;;;;;3.67;2.43;;;10.40;99.90;;;;;;4394102;28;658957;-86
2022/09/18 09:50:31;;;;;;;3.83;2.37;;;9.90;99.90;;;;;;4388541;28;658806;-86
2022/09/18 09:53:19;;;;;;;6.13;2.80;;;10.00;99.90;;;;;;4397619;28;657697;-84
2022/09/18 09:56:11;;;;;;;2.70;2.07;;;9.90;99.90;;;;;;4397103;28;658571;-85
2022/09/18 09:59:00;;;;;;;5.40;2.40;;;9.90;99.90;;;;;;4389540;28;657971;-84
2022/09/18 10:01:49;;;;;;;3.73;2.33;;;10.20;99.90;;;;;;4395375;28;658744;-86
2022/09/18 10:04:39;;;;;;;3.70;1.50;;;10.60;99.90;;;;;;4392868;28;658769;-84
2022/09/18 10:07:27;;;;;;;2.40;1.90;;;10.20;99.90;;;;;;4392713;28;658951;-84
2022/09/18 10:10:17;;;;;;;3.37;2.13;;;10.90;99.90;;;;;;4422650;28;659034;-84
2022/09/18 10:13:09;;;;;;;4.03;2.10;;;11.70;99.90;;;;;;4386158;28;659120;-86
2022/09/18 10:16:00;;;;;;;4.13;2.20;;;11.80;99.90;;;;;;4387185;28;658642;-86
2022/09/18 10:18:48;;;;;;;3.45;1.95;;;11.70;99.90;;;;;;4398165;28;658969;-84
2022/09/18 10:21:35;;;;;;;2.23;1.40;;;12.40;99.90;;;;;;4395802;28;659239;-86
2022/09/18 10:24:26;;;;;;;3.90;1.63;;;12.90;99.90;;;;;;4412896;28;659224;-84
2022/09/18 10:27:13;;;;;;;1.93;1.40;;;11.90;99.90;;;;;;4394504;28;658927;-84
2022/09/18 10:30:06;;;;;;;2.90;1.50;;;12.10;99.90;;;;;;4392330;28;659078;-85
2022/09/18 10:32:53;;;;;;;5.35;1.80;;;11.30;99.90;;;;;;4395251;28;658673;-85
2022/09/18 10:35:43;;;;;;;3.73;1.60;;;11.00;99.90;;;;;;4400356;28;658374;-84
2022/09/18 10:38:32;;;;;;;3.87;2.33;;;10.70;99.90;;;;;;4391280;28;659180;-85
2022/09/18 10:41:25;;;;;;;1.90;1.63;;;10.00;99.90;;;;;;4414360;28;658353;-84
2022/09/18 10:44:24;;;;;;;3.37;2.00;;;9.90;99.90;;;;;;4393403;28;659458;-85
2022/09/18 10:47:20;;;;;;;3.47;2.53;;;10.00;99.90;;;;;;4381396;28;657319;-84
2022/09/18 10:50:17;;;;;;;4.70;4.07;;;10.00;99.90;;;;;;4398845;28;659186;-84
2022/09/18 10:53:28;;;;;;;6.33;5.07;;;9.90;99.90;;;;;;4409329;28;659044;-85
2022/09/18 10:56:16;;;;;;;6.87;5.30;;;9.70;99.90;;;;;;4388497;28;657437;-84
2022/09/18 10:59:14;;;;;;;5.93;4.00;;;9.90;99.90;;;;;;4410448;28;657565;-82
2022/09/18 11:02:03;;;;;;;6.53;5.37;;;9.80;99.90;;;;;;4362434;28;658081;-86
2022/09/18 11:04:52;;;;;;;8.93;5.47;;;9.40;99.90;;;;;;4403941;28;657546;-84
2022/09/18 11:07:39;;;;;;;4.83;2.83;;;9.20;99.90;;;;;;4418675;28;657688;-84
2022/09/18 11:10:28;;;;;;;4.80;3.07;;;9.30;99.90;;;;;;4397008;28;658001;-86
2022/09/18 11:13:20;;;;;;;3.25;2.63;;;9.40;99.90;;;;;;4385564;28;657284;-85
2022/09/18 11:16:07;;;;;;;3.00;1.80;;;9.60;99.90;;;;;;4387763;28;658639;-85
2022/09/18 11:19:06;;;;;;;5.20;2.33;;;9.80;1.00;;;;;;4413126;28;657501;-85
2022/09/18 11:21:55;;;;;;;3.60;2.43;;;10.30;1.00;;;;;;4383790;28;656985;-86
2022/09/18 11:24:42;;;;;;;7.60;3.07;;;10.00;99.90;;;;;;4390533;28;659016;-85
2022/09/18 11:27:30;;;;;;;4.83;3.13;;;10.10;26.20;;;;;;4411159;28;658381;-85
2022/09/18 11:30:23;;;;;;;4.87;2.83;;;10.30;44.90;;;;;;4382274;28;658764;-85
2022/09/18 11:33:14;;;;;;;6.17;3.93;;;10.40;99.90;;;;;;4383228;28;658657;-84
2022/09/18 11:36:04;;;;;;;3.47;2.60;;;10.20;99.90;;;;;;4390454;28;658511;-85
2022/09/18 11:38:52;;;;;;;5.55;2.58;;;10.20;1.00;;;;;;4390289;28;658980;-85
2022/09/18 11:41:40;;;;;;;7.43;4.00;;;10.30;1.00;;;;;;4415566;28;657589;-85
2022/09/18 11:44:30;;;;;;;6.80;3.23;;;10.00;91.10;;;;;;4413109;28;659092;-84
2022/09/18 11:47:29;;;;;;;5.47;3.73;;;10.10;99.90;;;;;;4387407;28;659252;-85
2022/09/18 11:50:17;;;;;;;5.10;3.63;;;9.90;99.90;;;;;;4392375;28;658674;-84
2022/09/18 11:53:09;;;;;;;4.20;3.20;;;10.10;99.90;;;;;;4403229;28;657967;-84
2022/09/18 11:56:01;;;;;;;4.82;3.22;;;10.70;1.00;;;;;;4385281;28;658648;-84
2022/09/18 11:58:51;;;;;;;4.47;2.80;;;10.90;1.00;;;;;;4391120;28;658386;-85
2022/09/18 12:01:40;;;;;;;7.17;3.57;;;10.80;99.90;;;;;;4391580;28;658732;-86
2022/09/18 12:04:34;;;;;;;2.50;1.70;;;11.10;1.00;;;;;;4392964;28;659966;-86
2022/09/18 12:07:26;;;;;;;3.93;2.07;;;11.10;84.00;;;;;;4390878;28;657256;-87
2022/09/18 12:10:16;;;;;;;3.93;2.57;;;11.10;99.90;;;;;;4389919;28;659676;-86
2022/09/18 12:13:17;;;;;;;4.23;2.60;;;10.80;1.00;;;;;;4390260;28;659121;-85
2022/09/18 12:16:12;;;;;;;6.43;3.80;;;10.70;1.00;;;;;;4391463;28;658482;-85
2022/09/18 12:19:02;;;;;;;4.90;2.07;;;10.70;1.00;;;;;;4397781;28;657831;-86
2022/09/18 12:21:55;;;;;;;3.17;2.30;;;10.40;1.00;;;;;;4407993;28;657294;-85
2022/09/18 12:24:42;;;;;;;6.83;3.10;;;10.20;99.90;;;;;;4390069;28;658411;-85
2022/09/18 12:27:32;;;;;;;4.97;2.53;;;10.00;1.00;;;;;;4417727;28;658503;-84
2022/09/18 12:30:22;;;;;;;1.80;1.13;;;9.80;1.00;;;;;;4400991;28;657896;-84
2022/09/18 12:33:26;;;;;;;1.40;0.80;;;9.30;99.90;;;;;;4413189;28;656975;-85
2022/09/18 12:36:30;;;;;;;1.63;0.87;;;9.00;1.00;;;;;;4385950;28;657994;-85
2022/09/18 12:39:34;;;;;;;1.60;0.90;;;8.80;1.00;;;;;;4388237;28;656841;-83
2022/09/18 12:42:25;;;;;;;0.93;0.70;;;8.80;99.90;;;;;;4392883;28;657067;-85
2022/09/18 12:45:35;;;;;;;1.63;0.93;;;9.00;1.00;;;;;;4388459;28;658538;-85
2022/09/18 12:48:39;;;;;;;2.77;1.20;;;9.30;1.00;;;;;;4381053;28;656818;-84
2022/09/18 12:51:38;;;;;;;3.00;1.40;;;9.50;29.60;;;;;;4391501;28;657157;-85
2022/09/18 12:54:42;;;;;;;4.03;1.20;;;10.00;1.00;;;;;;4373813;28;657893;-87
2022/09/18 12:57:39;;;;;;;1.23;0.90;;;9.50;1.00;;;;;;4380544;28;657403;-85
2022/09/18 13:00:26;;;;;;;1.63;0.70;;;9.40;1.00;;;;;;4390675;28;656336;-84
2022/09/18 13:03:17;;;;;;;6.97;1.50;;;9.30;1.00;;;;;;4411610;28;657059;-84
2022/09/18 13:06:07;;;;;;;1.93;0.90;;;9.40;99.90;;;;;;4409195;28;656508;-86
2022/09/18 13:08:56;;;;;;;5.53;1.80;;;9.40;99.90;;;;;;4412642;28;657295;-87
2022/09/18 13:11:45;;;;;;;4.43;2.07;;;9.20;99.90;;;;;;4381555;28;657731;-87
2022/09/18 13:14:34;;;;;;;3.60;1.20;;;9.10;99.90;;;;;;4391146;28;658400;-86
2022/09/18 13:17:22;;;;;;;4.07;1.40;;;9.20;99.90;;;;;;4389960;28;657926;-86
2022/09/18 13:20:14;;;;;;;4.83;1.57;;;9.20;99.90;;;;;;4411887;28;657394;-87
2022/09/18 13:23:01;;;;;;;3.83;1.55;;;9.10;99.90;;;;;;4370002;28;658263;-85
2022/09/18 13:25:50;;;;;;;3.08;1.55;;;9.10;99.90;;;;;;4416833;28;657735;-85
2022/09/18 13:28:38;;;;;;;3.22;1.27;;;9.20;99.90;;;;;;4394200;28;657703;-85
2022/09/18 13:31:27;;;;;;;2.73;1.63;;;9.10;99.90;;;;;;4394318;28;657884;-85
2022/09/18 13:34:15;;;;;;;2.93;1.43;;;8.90;99.90;;;;;;4423140;28;657638;-85
2022/09/18 13:37:06;;;;;;;2.30;1.50;;;9.00;99.90;;;;;;4398541;28;658207;-85
2022/09/18 13:39:54;;;;;;;6.73;1.90;;;9.00;99.90;;;;;;4391161;28;658424;-85
2022/09/18 13:42:42;;;;;;;6.67;2.67;;;9.00;99.90;;;;;;4398106;28;657414;-85
2022/09/18 13:45:29;;;;;;;3.93;2.40;;;9.00;99.90;;;;;;4410651;28;657495;-85
2022/09/18 13:48:20;;;;;;;4.67;2.27;;;9.00;99.90;;;;;;4390816;28;657737;-85
2022/09/18 13:51:09;;;;;;;3.00;2.30;;;9.20;99.90;;;;;;4395057;28;658562;-85
2022/09/18 13:54:19;;;;;;;2.60;1.90;;;9.20;99.90;;;;;;4390425;28;657708;-85
2022/09/18 13:57:30;;;;;;;3.50;2.20;;;9.20;99.90;;;;;;4394648;28;657796;-86
2022/09/18 14:00:38;;;;;;;3.27;1.87;;;9.10;99.90;;;;;;4387094;28;657724;-85
2022/09/18 14:03:38;;;;;;;4.20;2.00;;;9.10;99.90;;;;;;4392585;28;657988;-85
2022/09/18 14:06:44;;;;;;;2.77;1.90;;;9.10;99.90;;;;;;4400283;28;657974;-85
2022/09/18 14:09:50;;;;;;;2.37;1.90;;;9.00;99.90;;;;;;4392851;28;657534;-84
2022/09/18 14:12:37;;;;;;;1.90;1.60;;;8.90;99.90;;;;;;4392902;28;657477;-85
2022/09/18 14:15:24;;;;;;;5.07;2.07;;;8.70;99.90;;;;;;4425103;28;657436;-84
2022/09/18 14:18:13;;;;;;;4.30;2.30;;;8.70;99.90;;;;;;4405467;28;658538;-85
2022/09/18 14:21:13;;;;;;;8.77;3.30;;;8.70;99.90;;;;;;4394049;28;657845;-84
2022/09/18 14:24:19;;;;;;;6.17;2.70;;;8.60;99.90;;;;;;4388791;28;657471;-85
2022/09/18 14:27:30;;;;;;;8.50;2.83;;;8.60;99.90;;;;;;4390973;28;658539;-84
2022/09/18 14:30:21;;;;;;;6.00;3.40;;;8.50;99.90;;;;;;4403949;28;657583;-84
2022/09/18 14:33:16;;;;;;;8.80;3.60;;;8.60;99.90;;;;;;4391092;28;657983;-85
2022/09/18 14:36:04;;;;;;;7.10;3.80;;;8.60;99.90;;;;;;4398136;28;658436;-84
2022/09/18 14:38:51;;;;;;;11.87;4.33;;;8.60;99.90;;;;;;4375606;28;657492;-85